createdAt,value
2023-03-11T00:00:31.431Z,3.53
2023-03-11T00:05:30.702Z,8.55
2023-03-11T00:10:38.166Z,4.28
2023-03-11T00:15:31.519Z,3.05
2023-03-11T00:20:30.108Z,2.20
2023-03-11T00:25:26.450Z,3.03
2023-03-11T00:30:20.790Z,3.97
2023-03-11T00:35:15.946Z,6.45
2023-03-11T00:40:13.913Z,7.20
2023-03-11T00:45:07.663Z,3.37
2023-03-11T00:50:01.101Z,4.82
2023-03-11T00:54:54.769Z,5.22
2023-03-11T00:59:48.757Z,4.82
2023-03-11T01:04:41.576Z,3.35
2023-03-11T01:09:34.733Z,3.38
2023-03-11T01:14:28.241Z,7.50
2023-03-11T01:19:21.196Z,7.80
2023-03-11T01:24:15.032Z,5.75
2023-03-11T01:29:08.599Z,5.97
2023-03-11T01:34:03.174Z,4.03
2023-03-11T01:38:55.739Z,3.53
2023-03-11T01:43:54.932Z,3.92
2023-03-11T01:48:55.780Z,6.72
2023-03-11T01:53:49.728Z,2.70
2023-03-11T01:58:45.490Z,5.55
2023-03-11T02:03:40.473Z,4.03
2023-03-11T02:08:34.848Z,5.18
2023-03-11T02:13:30.194Z,3.72
2023-03-11T02:18:22.996Z,4.85
2023-03-11T02:23:16.938Z,4.80
2023-03-11T02:28:12.636Z,6.35
2023-03-11T02:33:05.383Z,2.22
2023-03-11T02:37:59.284Z,2.90
2023-03-11T02:42:59.590Z,3.70
2023-03-11T02:47:53.164Z,2.97
2023-03-11T02:52:49.012Z,6.10
2023-03-11T02:57:43.187Z,6.50
2023-03-11T03:02:36.254Z,5.63
2023-03-11T03:07:28.722Z,9.70
2023-03-11T03:12:22.640Z,3.25
2023-03-11T03:17:15.394Z,2.47
2023-03-11T03:22:08.733Z,2.22
2023-03-11T03:27:01.641Z,4.78
2023-03-11T03:31:56.061Z,3.00
2023-03-11T03:36:49.362Z,3.70
2023-03-11T03:41:44.346Z,2.50
2023-03-11T03:46:38.604Z,1.67
2023-03-11T03:51:35.047Z,3.30
2023-03-11T03:57:00.436Z,3.40
2023-03-11T04:01:58.477Z,2.47
2023-03-11T04:06:53.229Z,0.80
2023-03-11T04:11:45.766Z,0.73
2023-03-11T04:16:41.514Z,1.52
2023-03-11T04:21:38.388Z,2.17
2023-03-11T04:26:32.021Z,0.50
2023-03-11T04:31:25.518Z,1.45
2023-03-11T04:36:17.988Z,0.55
2023-03-11T04:41:11.955Z,0.77
2023-03-11T04:46:07.407Z,0.88
2023-03-11T04:51:01.784Z,1.00
2023-03-11T04:55:56.674Z,0.88
2023-03-11T05:00:50.232Z,1.83
2023-03-11T05:05:43.813Z,1.65
2023-03-11T05:10:37.877Z,0.80
2023-03-11T05:15:33.045Z,1.15
2023-03-11T05:20:27.936Z,2.10
2023-03-11T05:25:21.567Z,4.68
2023-03-11T05:30:15.948Z,4.60
2023-03-11T05:35:11.984Z,8.73
2023-03-11T05:40:08.536Z,16.45
2023-03-11T05:45:04.392Z,7.50
2023-03-11T05:49:59.834Z,5.72
2023-03-11T05:54:53.485Z,15.50
2023-03-11T05:59:49.779Z,11.30
2023-03-11T06:04:43.681Z,5.60
2023-03-11T06:09:37.554Z,7.75
2023-03-11T06:14:33.646Z,4.05
2023-03-11T06:19:27.941Z,7.43
2023-03-11T06:24:21.270Z,10.02
2023-03-11T06:29:15.822Z,8.60
2023-03-11T06:34:11.760Z,10.10
2023-03-11T06:39:05.602Z,7.25
2023-03-11T06:44:01.283Z,7.10
2023-03-11T06:48:56.274Z,5.82
2023-03-11T06:53:52.857Z,6.15
2023-03-11T06:58:47.202Z,19.23
2023-03-11T07:03:42.065Z,10.85
2023-03-11T07:08:36.179Z,13.82
2023-03-11T07:13:30.057Z,8.40
2023-03-11T07:18:23.175Z,9.63
2023-03-11T07:23:17.093Z,8.38
2023-03-11T07:28:10.538Z,10.43
2023-03-11T07:33:03.891Z,7.68
2023-03-11T07:37:57.540Z,5.90
2023-03-11T07:42:51.577Z,4.65
2023-03-11T07:47:46.619Z,9.70
2023-03-11T07:52:40.692Z,4.05
2023-03-11T07:57:33.422Z,4.20
2023-03-11T08:02:26.734Z,6.65
2023-03-11T08:07:20.903Z,4.15
2023-03-11T08:12:14.266Z,5.35
2023-03-11T08:17:07.562Z,3.97
2023-03-11T08:22:02.542Z,6.15
2023-03-11T08:26:57.194Z,3.53
2023-03-11T08:31:50.700Z,6.43
2023-03-11T08:36:45.106Z,7.25
2023-03-11T08:41:39.228Z,6.68
2023-03-11T08:46:37.883Z,2.75
2023-03-11T08:51:31.598Z,5.00
2023-03-11T08:56:24.936Z,3.55
2023-03-11T09:01:19.065Z,3.58
2023-03-11T09:06:15.626Z,6.90
2023-03-11T09:16:02.744Z,9.13
2023-03-11T09:20:59.211Z,7.15
2023-03-11T09:25:52.631Z,20.35
2023-03-11T09:30:45.835Z,2.88
2023-03-11T09:35:39.579Z,3.03
2023-03-11T09:41:22.641Z,1.85
2023-03-11T09:46:29.008Z,2.28
2023-03-11T09:51:29.483Z,1.95
2023-03-11T09:56:24.295Z,1.02
2023-03-11T10:01:30.836Z,1.88
2023-03-11T10:06:30.704Z,1.58
2023-03-11T10:11:46.165Z,1.33
2023-03-11T10:17:04.979Z,4.15
2023-03-11T10:22:17.520Z,4.40
2023-03-11T10:27:16.461Z,1.15
2023-03-11T10:32:20.949Z,2.20
2023-03-11T10:37:49.299Z,0.93
2023-03-11T10:42:44.873Z,2.53
2023-03-11T10:47:38.765Z,3.17
2023-03-11T10:52:31.729Z,0.20
2023-03-11T10:57:24.418Z,2.38
2023-03-11T11:02:52.431Z,0.43
2023-03-11T11:07:56.071Z,2.75
2023-03-11T11:13:19.800Z,1.52
2023-03-11T11:18:22.513Z,1.48
2023-03-11T11:23:26.474Z,0.85
2023-03-11T11:28:21.404Z,0.68
2023-03-11T11:33:51.120Z,0.57
2023-03-11T11:38:45.028Z,3.13
2023-03-11T11:43:54.342Z,0.20
2023-03-11T11:49:13.768Z,0.85
2023-03-11T11:54:42.909Z,0.38
2023-03-11T11:59:35.756Z,2.40
2023-03-11T12:04:50.769Z,1.90
2023-03-11T12:10:26.123Z,0.20
2023-03-11T12:15:45.519Z,0.20
2023-03-11T12:20:44.955Z,0.28
2023-03-11T12:26:22.619Z,0.47
2023-03-11T12:31:15.841Z,0.52
2023-03-11T12:36:22.838Z,0.00
2023-03-11T12:41:15.550Z,0.00
2023-03-11T12:46:10.719Z,0.00
2023-03-11T12:51:04.205Z,0.10
2023-03-11T12:56:20.533Z,2.30
2023-03-11T13:01:20.969Z,0.40
2023-03-11T13:06:16.777Z,1.10
2023-03-11T13:11:32.923Z,1.90
2023-03-11T13:16:25.569Z,2.63
2023-03-11T13:21:30.084Z,1.65
2023-03-11T13:26:30.588Z,0.32
2023-03-11T13:31:35.754Z,0.47
2023-03-11T13:36:50.156Z,1.77
2023-03-11T13:41:44.422Z,3.70
2023-03-11T13:46:39.340Z,0.10
2023-03-11T13:51:41.890Z,0.20
2023-03-11T13:56:44.730Z,0.17
2023-03-11T14:01:39.399Z,0.10
2023-03-11T14:06:32.567Z,0.45
2023-03-11T14:11:31.963Z,0.10
2023-03-11T14:16:34.042Z,0.20
2023-03-11T14:21:26.884Z,0.10
2023-03-11T14:26:22.899Z,0.20
2023-03-11T14:31:44.296Z,0.43
2023-03-11T14:36:46.505Z,2.33
2023-03-11T14:41:41.465Z,0.10
2023-03-11T14:46:34.790Z,0.10
2023-03-11T14:51:32.237Z,0.57
2023-03-11T14:56:27.159Z,0.30
2023-03-11T15:01:23.019Z,3.92
2023-03-11T15:06:18.862Z,1.13
2023-03-11T15:11:41.818Z,0.15
2023-03-11T15:16:40.920Z,0.20
2023-03-11T15:21:44.408Z,0.20
2023-03-11T15:27:01.974Z,0.63
2023-03-11T15:31:59.135Z,2.40
2023-03-11T15:36:53.946Z,0.20
2023-03-11T15:41:49.511Z,0.57
2023-03-11T15:46:43.377Z,0.25
2023-03-11T15:51:37.452Z,0.20
2023-03-11T15:56:33.643Z,0.57
2023-03-11T16:01:29.166Z,0.40
2023-03-11T16:06:24.950Z,0.70
2023-03-11T16:11:19.119Z,5.25
2023-03-11T16:16:18.681Z,0.52
2023-03-11T16:21:17.152Z,4.30
2023-03-11T16:31:02.496Z,0.40
2023-03-11T16:35:55.664Z,1.38
2023-03-11T16:40:57.307Z,2.42
2023-03-11T16:45:50.470Z,0.40
2023-03-11T16:50:43.568Z,0.57
2023-03-11T16:55:37.668Z,1.05
2023-03-11T17:00:31.289Z,15.52
2023-03-11T17:05:24.649Z,1.95
2023-03-11T17:10:18.127Z,1.67
2023-03-11T17:15:11.925Z,2.45
2023-03-11T17:20:07.144Z,18.67
2023-03-11T17:25:02.870Z,11.93
2023-03-11T17:29:56.935Z,7.35
2023-03-11T17:34:51.347Z,2.80
2023-03-11T17:39:43.851Z,1.75
2023-03-11T17:44:50.692Z,3.85
2023-03-11T17:49:45.223Z,6.53
2023-03-11T17:54:39.291Z,7.30
2023-03-11T17:59:32.322Z,5.50
2023-03-11T18:04:26.486Z,5.82
2023-03-11T18:09:20.298Z,4.22
2023-03-11T18:14:13.364Z,5.43
2023-03-11T18:19:07.306Z,7.18
2023-03-11T18:24:01.985Z,7.18
2023-03-11T18:28:59.009Z,6.30
2023-03-11T18:34:03.540Z,8.02
2023-03-11T18:38:58.104Z,10.45
2023-03-11T18:43:58.304Z,8.82
2023-03-11T18:48:51.121Z,15.35
2023-03-11T18:53:44.540Z,14.98
2023-03-11T18:58:37.593Z,17.27
2023-03-11T19:03:31.429Z,15.98
2023-03-11T19:08:27.500Z,12.90
2023-03-11T19:13:22.156Z,17.05
2023-03-11T19:18:15.147Z,15.15
2023-03-11T19:23:09.727Z,13.63
2023-03-11T19:28:03.844Z,16.00
2023-03-11T19:32:56.877Z,14.77
2023-03-11T19:37:57.524Z,16.48
2023-03-11T19:42:51.127Z,15.65
2023-03-11T19:47:46.583Z,16.33
2023-03-11T19:52:39.768Z,16.85
2023-03-11T19:57:32.412Z,17.00
2023-03-11T20:02:24.701Z,17.05
2023-03-11T20:07:18.008Z,14.77
2023-03-11T20:12:11.820Z,13.70
2023-03-11T20:17:04.850Z,25.30
2023-03-11T20:21:58.862Z,48.47
2023-03-11T20:26:52.871Z,48.13
2023-03-11T20:31:46.544Z,55.47
2023-03-11T20:36:39.700Z,32.28
2023-03-11T20:41:39.539Z,18.05
2023-03-11T20:46:34.643Z,14.35
2023-03-11T20:51:29.042Z,20.13
2023-03-11T20:56:25.455Z,16.23
2023-03-11T21:01:21.035Z,24.50
2023-03-11T21:06:18.491Z,15.10
2023-03-11T21:11:12.450Z,20.27
2023-03-11T21:16:08.816Z,20.48
2023-03-11T21:21:04.422Z,19.35
2023-03-11T21:26:00.234Z,15.95
2023-03-11T21:31:19.004Z,15.60
2023-03-11T21:36:12.914Z,12.77
2023-03-11T21:41:10.971Z,12.95
2023-03-11T21:46:03.947Z,17.83
2023-03-11T21:51:16.258Z,14.80
2023-03-11T21:56:29.135Z,14.02
2023-03-11T22:01:21.522Z,13.80
2023-03-11T22:06:34.970Z,27.95
2023-03-11T22:11:28.151Z,17.45
2023-03-11T22:16:22.430Z,21.02
2023-03-11T22:21:16.753Z,17.67
2023-03-11T22:26:09.785Z,22.30
2023-03-11T22:31:09.431Z,19.15
2023-03-11T22:36:03.007Z,21.77
2023-03-11T22:40:55.576Z,24.30
2023-03-11T22:45:49.053Z,26.58
2023-03-11T22:50:43.564Z,24.77
2023-03-11T22:55:40.633Z,26.23
2023-03-11T23:00:34.178Z,23.13
2023-03-11T23:05:27.412Z,25.92
2023-03-11T23:10:21.570Z,24.45
2023-03-11T23:15:17.600Z,29.60
2023-03-11T23:20:16.439Z,24.15
2023-03-11T23:25:12.593Z,22.00
2023-03-11T23:30:07.306Z,26.85
2023-03-11T23:35:01.308Z,24.15
2023-03-11T23:39:55.531Z,26.80
2023-03-11T23:44:49.200Z,21.33
2023-03-11T23:49:42.552Z,24.77
2023-03-11T23:54:36.789Z,19.73
2023-03-11T23:59:31.404Z,23.90
